Weather observations for the past three days for
Alice, Alice International Airport
| Date | Time (cdt) | Wind (mph) | Vis. (mi.) | Weather | Sky Cond. | Temperature (ºF) | Relative Humidity | Wind Chill (°F) | Heat Index (°F) | Pressure | Precipitation (in) | ||||||
|---|---|---|---|---|---|---|---|---|---|---|---|---|---|---|---|---|---|
| Air | Dwpt | 6 hour | altimeter (in) | sea level (mb) | 1 hr | 3 hr | 6 hr | ||||||||||
| Max. | Min. | ||||||||||||||||
| 10 | 08:53 | SE 5 | 8.00 | Overcast | OVC014 | 73.9 | 73 | 97% | 29.88 | 1011.5 | |||||||
| 10 | 07:53 | Calm | 1.50 | Fog/Mist | BKN004 OVC010 | 73 | 72 | 96% | 29.86 | 1010.7 | |||||||
| 10 | 06:53 | Calm | 2.50 | Fog/Mist | OVC003 | 71.1 | 71.1 | 72 | 66.9 | 100% | 29.85 | 1010.4 | |||||
| 10 | 05:53 | Calm | 6.00 | Fog/Mist | OVC004 | 69.1 | 68 | 96% | 29.84 | 1010.0 | |||||||
| 10 | 04:53 | Calm | 8.00 | Overcast | OVC006 | 69.1 | 68 | 96% | 29.84 | 1010.3 | |||||||
| 10 | 03:53 | Calm | 9.00 | Fair | CLR | 68 | 68 | 100% | 29.84 | 1010.1 | |||||||
| 10 | 02:53 | S 5 | 10.00 | Fair | CLR | 70 | 68 | 93% | 29.85 | 1010.4 | |||||||
| 10 | 01:53 | SE 5 | 10.00 | Fair | CLR | 69.1 | 68 | 96% | 29.84 | 1010.3 | |||||||
| 10 | 00:53 | SW 6 | 10.00 | Fair | CLR | 72 | 69.1 | 87.1 | 71.1 | 91% | 29.84 | 1010.2 | |||||
| 09 | 23:53 | S 6 | 10.00 | Fair | CLR | 71.1 | 68 | 90% | 29.85 | 1010.4 | |||||||
| 09 | 22:53 | SE 5 | 10.00 | Fair | CLR | 73 | 66.9 | 81% | 29.83 | 1009.9 | |||||||
| 09 | 21:53 | S 8 | 10.00 | Fair | CLR | 75.9 | 66 | 72% | 77 | 29.8 | 1008.9 | ||||||
| 09 | 20:53 | SE 8 | 10.00 | Fair | CLR | 78.1 | 64.9 | 64% | 80 | 29.79 | 1008.4 | ||||||
| 09 | 19:53 | SE 13 | 10.00 | Fair | CLR | 82 | 66.9 | 60% | 85 | 29.77 | 1007.7 | ||||||
| 09 | 18:53 | SE 15 G 23 | 10.00 | Fair | CLR | 88 | 69.1 | 91.9 | 86 | 54% | 92 | 29.76 | 1007.3 | ||||
| 09 | 17:53 | SE 7 | 10.00 | Fair | CLR | 91 | 66.9 | 45% | 94 | 29.76 | 1007.4 | ||||||
| 09 | 16:53 | Calm | 10.00 | Partly Cloudy | SCT055 | 91 | 66.9 | 45% | 94 | 29.76 | 1007.3 | ||||||
| 09 | 15:53 | S 9 | 10.00 | Fair | CLR | 91 | 66 | 44% | 94 | 29.76 | 1007.6 | ||||||
| 09 | 14:53 | Calm | 10.00 | Fair | CLR | 90 | 66.9 | 47% | 93 | 29.78 | 1008.3 | ||||||
| 09 | 13:53 | SW 9 | 10.00 | Fair | CLR | 88 | 66.9 | 50% | 91 | 29.79 | 1008.6 | ||||||
| 09 | 12:53 | SW 9 | 10.00 | Fair | CLR | 86 | 66 | 86 | 71.1 | 51% | 88 | 29.81 | 1009.3 | ||||
| 09 | 11:53 | SW 10 | 10.00 | Fair | CLR | 82.9 | 66.9 | 59% | 86 | 29.83 | 1009.7 | ||||||
| 09 | 10:53 | Calm | 10.00 | Fair | CLR | 80.1 | 66.9 | 64% | 82 | 29.85 | 1010.6 | ||||||
| 09 | 09:53 | NW 5 | 10.00 | Fair | CLR | 75.9 | 69.1 | 79% | 77 | 29.82 | 1009.5 | ||||||
| 09 | 08:53 | Calm | 10.00 | Fair | CLR | 71.1 | 66.9 | 87% | 29.84 | 1010.1 | |||||||
| 09 | 07:53 | SE 8 G 20 | 10.00 | Fair | CLR | 71.1 | 66 | 84% | 29.81 | 1009.3 | |||||||
| 09 | 06:53 | SE 13 G 24 | 10.00 | A Few Clouds | FEW050 | 71.1 | 66 | 77 | 70 | 84% | 29.78 | 1008.1 | 0.01 | 0.3 | |||
| 09 | 05:53 | E 8 G 25 | 8.00 | Light Rain | SCT036 BKN080 OVC110 | 72 | 68 | 87% | 29.78 | 1008.3 | 0.1 | ||||||
| 09 | 04:53 | S 5 | 3.00 | Thunderstorm in Vicinity Rain Fog/Mist | BKN010 BKN065 BKN095 | 75.9 | 75 | 97% | 75 | 29.86 | 1010.8 | 0.19 | |||||
| 09 | 03:53 | NE 9 | 9.00 | A Few Clouds | FEW110 | 75 | 73.9 | 96% | 73 | 29.77 | 1008.0 | ||||||
| 09 | 02:53 | SE 7 | 10.00 | Partly Cloudy | SCT022 | 75.9 | 73.9 | 94% | 75 | 29.77 | 1007.8 | ||||||
| 09 | 01:53 | NE 7 | 9.00 | Partly Cloudy | FEW020 SCT030 SCT110 | 75.9 | 73.9 | 94% | 75 | 29.8 | 1008.8 | ||||||
| 09 | 00:53 | NE 5 | 9.00 | Mostly Cloudy | BKN070 BKN110 | 77 | 73.9 | 84.9 | 77 | 90% | 78 | 29.8 | 1008.8 | ||||
| 08 | 23:53 | SE 5 | 9.00 | Partly Cloudy | SCT060 | 77 | 73.9 | 90% | 78 | 29.8 | 1008.8 | ||||||
| 08 | 22:53 | E 5 | 9.00 | Fair | CLR | 77 | 73.9 | 90% | 78 | 29.78 | 1008.3 | ||||||
| 08 | 21:53 | SE 7 | 9.00 | Fair | CLR | 79 | 73.9 | 85% | 83 | 29.76 | 1007.5 | ||||||
| 08 | 20:53 | SE 7 | 10.00 | Fair | CLR | 80.1 | 75 | 85% | 85 | 29.74 | 1006.6 | ||||||
| 08 | 19:53 | SE 8 | 9.00 | A Few Clouds | FEW060 | 82 | 75 | 79% | 89 | 29.71 | 1005.9 | ||||||
| 08 | 18:53 | SE 13 | 10.00 | Fair | CLR | 84.9 | 73.9 | 89.1 | 84 | 70% | 92 | 29.71 | 1005.6 | ||||
| 08 | 17:53 | S 10 | 10.00 | Mostly Cloudy | BKN060 | 87.1 | 73 | 63% | 95 | 29.71 | 1005.8 | ||||||
| 08 | 16:53 | S 8 | 10.00 | A Few Clouds | FEW050 | 88 | 71.1 | 57% | 94 | 29.71 | 1005.7 | ||||||
| 08 | 15:53 | SE 8 | 10.00 | Mostly Cloudy | SCT041 BKN065 | 89.1 | 72 | 57% | 96 | 29.75 | 1007.1 | ||||||
| 08 | 14:53 | S 7 | 10.00 | Overcast | SCT042 OVC055 | 87.1 | 72 | 61% | 94 | 29.77 | 1007.9 | ||||||
| 08 | 13:53 | SE 6 | 10.00 | Mostly Cloudy | FEW030 SCT035 BKN046 | 87.1 | 73 | 63% | 95 | 29.79 | 1008.6 | ||||||
| 08 | 12:53 | E 5 | 10.00 | Mostly Cloudy | BKN026 BKN033 | 84 | 73 | 84.9 | 66 | 70% | 90 | 29.82 | 1009.5 | 0.03 | |||
| 08 | 11:53 | SE 6 | 10.00 | Overcast | BKN020 OVC038 | 82 | 73 | 74% | 87 | 29.85 | 1010.5 | ||||||
| 08 | 10:53 | Vrbl 5 | 10.00 | Partly Cloudy | FEW012 SCT039 | 78.1 | 72 | 82% | 80 | 29.87 | 1011.2 | ||||||
| 08 | 09:53 | E 6 | 10.00 | A Few Clouds | FEW044 | 73 | 69.1 | 87% | 29.87 | 1011.3 | 0.03 | ||||||
| 08 | 08:53 | E 6 | 10.00 | Mostly Cloudy | BKN048 | 69.1 | 66 | 90% | 29.89 | 1012.0 | |||||||
| 08 | 07:53 | N 8 | 10.00 | Mostly Cloudy | SCT007 SCT018 BKN028 | 66 | 64.9 | 96% | 29.89 | 1012.1 | 0.03 | ||||||
| 08 | 06:53 | N 9 | 6.00 | Fog/Mist | OVC009 | 66.9 | 66 | 71.1 | 66.9 | 97% | 29.9 | 1012.2 | 0.01 | ||||
| 08 | 05:53 | N 8 | 6.00 | Fog/Mist | OVC006 | 69.1 | 66.9 | 93% | 29.88 | 1011.6 | |||||||
| 08 | 04:53 | N 3 | 6.00 | Fog/Mist | BKN006 | 68 | 66.9 | 96% | 29.87 | 1011.3 | |||||||
| 08 | 03:53 | N 8 | 4.00 | Fog/Mist | SCT004 OVC012 | 68 | 66.9 | 96% | 29.88 | 1011.5 | 0.01 | ||||||
| 08 | 02:53 | N 7 | 2.50 | Fog/Mist | FEW005 OVC014 | 69.1 | 68 | 96% | 29.89 | 1012.0 | 0.01 | ||||||
| 08 | 01:53 | Calm | 5.00 | Fog/Mist | OVC011 | 70 | 66 | 87% | 29.93 | 1013.2 | |||||||
| 08 | 00:53 | NE 3 | 10.00 | Overcast | OVC012 | 71.1 | 64.9 | 72 | 70 | 81% | 29.91 | 1012.7 | |||||
| 07 | 23:53 | NE 3 | 10.00 | Overcast | OVC015 | 70 | 64.9 | 84% | 29.92 | 1012.9 | |||||||
| 07 | 22:53 | E 5 | 10.00 | Overcast | OVC015 | 71.1 | 64 | 79% | 29.92 | 1013.1 | |||||||
| 07 | 21:53 | E 12 G 18 | 10.00 | Light Rain | OVC016 | 71.1 | 64.9 | 81% | 29.9 | 1012.3 | |||||||
| 07 | 20:53 | NE 8 | 10.00 | Overcast | OVC019 | 71.1 | 63 | 76% | 29.91 | 1012.6 | |||||||
| 07 | 19:53 | N 7 | 10.00 | Overcast | OVC021 | 72 | 63 | 73% | 29.93 | 1013.2 | |||||||
| 07 | 18:53 | NE 9 | 10.00 | Overcast | OVC021 | 72 | 63 | 75 | 72 | 73% | 29.9 | 1012.2 | |||||
| 07 | 17:53 | NE 9 | 10.00 | Overcast | OVC022 | 73 | 63 | 71% | 29.91 | 1012.4 | |||||||
| 07 | 16:53 | NE 10 | 10.00 | Overcast | OVC022 | 73.9 | 63 | 69% | 29.9 | 1012.3 | |||||||
| 07 | 15:53 | NE 10 | 10.00 | Overcast | OVC021 | 73.9 | 63 | 69% | 29.91 | 1012.4 | |||||||
| 07 | 14:53 | NE 10 | 10.00 | Overcast | OVC020 | 73 | 62.1 | 69% | 29.92 | 1013.0 | |||||||
| 07 | 13:53 | NE 12 | 10.00 | Overcast | OVC021 | 72 | 62.1 | 71% | 29.95 | 1014.0 | |||||||
| 07 | 12:53 | NE 12 | 10.00 | Overcast | OVC020 | 72 | 62.1 | 72 | 69.1 | 71% | 29.97 | 1014.6 | |||||
| 07 | 11:53 | NE 14 | 10.00 | Overcast | OVC017 | 70 | 62.1 | 76% | 29.97 | 1014.7 | |||||||
| 07 | 10:53 | NE 13 | 10.00 | Overcast | OVC016 | 70 | 62.1 | 76% | 29.96 | 1014.2 | |||||||
| 07 | 09:53 | NE 13 | 10.00 | Overcast | OVC015 | 70 | 62.1 | 76% | 29.95 | 1013.9 | |||||||
| Date | Time (cdt) | Wind (mph) | Vis. (mi.) | Weather | Sky Cond. | Air | Dwpt | Max. | Min. | Relative Humidity | Wind Chill (°F) | Heat Index (°F) | altimeter (in) | sea level (mb) | 1 hr | 3 hr | 6 hr |
| 6 hour | |||||||||||||||||
| Temperature (ºF) | Pressure | Precipitation (in) | |||||||||||||||